createdAt,value
2022-08-19T00:01:37.741Z,26.30
2022-08-19T00:04:04.465Z,26.10
2022-08-19T00:06:31.323Z,25.47
2022-08-19T00:08:53.208Z,26.43
2022-08-19T00:11:25.295Z,26.40
2022-08-19T00:13:49.466Z,25.80
2022-08-19T00:16:11.407Z,24.33
2022-08-19T00:18:34.907Z,26.87
2022-08-19T00:20:56.756Z,26.37
2022-08-19T00:23:18.650Z,25.87
2022-08-19T00:25:41.424Z,27.23
2022-08-19T00:28:05.388Z,26.80
2022-08-19T00:30:28.846Z,26.53
2022-08-19T00:32:51.506Z,26.43
2022-08-19T00:35:13.891Z,27.07
2022-08-19T00:37:36.212Z,27.43
2022-08-19T00:39:58.256Z,27.20
2022-08-19T00:42:22.771Z,28.43
2022-08-19T00:47:07.745Z,26.87
2022-08-19T00:49:51.695Z,26.67
2022-08-19T00:52:25.128Z,27.40
2022-08-19T00:54:52.519Z,28.70
2022-08-19T00:57:22.006Z,28.00
2022-08-19T00:59:58.799Z,30.03
2022-08-19T01:02:25.202Z,29.47
2022-08-19T01:04:47.313Z,28.07
2022-08-19T01:07:09.467Z,29.90
2022-08-19T01:09:37.246Z,28.77
2022-08-19T01:11:59.158Z,31.03
2022-08-19T01:14:20.983Z,30.17
2022-08-19T01:16:44.806Z,30.73
2022-08-19T01:19:44.265Z,31.30
2022-08-19T01:22:27.659Z,30.10
2022-08-19T01:24:53.281Z,28.87
2022-08-19T01:27:18.516Z,31.10
2022-08-19T01:29:45.827Z,29.33
2022-08-19T01:32:33.513Z,27.60
2022-08-19T01:34:55.488Z,29.20
2022-08-19T01:37:27.173Z,29.33
2022-08-19T01:39:49.261Z,31.23
2022-08-19T01:42:12.958Z,29.30
2022-08-19T01:44:37.266Z,29.80
2022-08-19T01:46:59.321Z,31.02
2022-08-19T01:49:26.318Z,28.97
2022-08-19T01:51:50.567Z,28.40
2022-08-19T01:54:27.669Z,29.30
2022-08-19T01:56:53.529Z,29.10
2022-08-19T01:59:24.050Z,30.60
2022-08-19T02:01:46.419Z,29.47
2022-08-19T02:04:08.666Z,28.57
2022-08-19T02:06:30.794Z,31.63
2022-08-19T02:08:52.701Z,29.67
2022-08-19T02:11:28.694Z,28.97
2022-08-19T02:13:51.075Z,29.13
2022-08-19T02:16:12.980Z,30.03
2022-08-19T02:18:34.915Z,29.57
2022-08-19T02:20:56.992Z,30.43
2022-08-19T02:23:19.052Z,30.57
2022-08-19T02:25:43.168Z,31.17
2022-08-19T02:28:06.064Z,29.58
2022-08-19T02:30:28.114Z,29.50
2022-08-19T02:32:49.968Z,29.77
2022-08-19T02:35:14.556Z,29.20
2022-08-19T02:40:18.841Z,28.67
2022-08-19T02:42:41.941Z,28.60
2022-08-19T02:45:05.964Z,28.70
2022-08-19T02:47:28.134Z,27.52
2022-08-19T02:49:50.858Z,29.33
2022-08-19T02:52:13.161Z,27.80
2022-08-19T02:54:35.387Z,28.83
2022-08-19T02:56:57.250Z,28.60
2022-08-19T02:59:20.338Z,26.97
2022-08-19T03:01:46.611Z,28.87
2022-08-19T03:04:13.984Z,29.73
2022-08-19T03:06:42.362Z,29.73
2022-08-19T03:09:04.424Z,30.63
2022-08-19T03:11:32.013Z,27.43
2022-08-19T03:13:55.425Z,28.43
2022-08-19T03:16:19.316Z,27.93
2022-08-19T03:18:41.298Z,29.33
2022-08-19T03:21:04.325Z,30.80
2022-08-19T03:23:26.357Z,32.17
2022-08-19T03:25:58.244Z,31.73
2022-08-19T03:28:34.112Z,34.28
2022-08-19T03:31:45.158Z,35.63
2022-08-19T03:33:53.294Z,36.60
2022-08-19T03:36:23.548Z,36.70
2022-08-19T03:38:56.259Z,35.63
2022-08-19T03:41:26.775Z,38.73
2022-08-19T03:44:06.693Z,40.22
2022-08-19T03:46:35.461Z,36.33
2022-08-19T03:49:00.686Z,37.43
2022-08-19T03:51:35.929Z,36.93
2022-08-19T03:54:01.586Z,37.00
2022-08-19T03:56:26.375Z,36.23
2022-08-19T03:58:49.780Z,37.20
2022-08-19T04:01:18.743Z,38.07
2022-08-19T04:03:41.720Z,36.67
2022-08-19T04:06:22.388Z,35.03
2022-08-19T04:08:46.975Z,35.30
2022-08-19T04:13:32.247Z,33.33
2022-08-19T04:15:54.395Z,34.20
2022-08-19T04:18:16.432Z,33.63
2022-08-19T04:20:56.757Z,35.07
2022-08-19T04:23:19.880Z,32.23
2022-08-19T04:25:45.143Z,29.93
2022-08-19T04:28:08.473Z,31.57
2022-08-19T04:30:30.281Z,35.90
2022-08-19T04:32:52.283Z,36.67
2022-08-19T04:35:16.747Z,36.17
2022-08-19T04:37:39.652Z,38.07
2022-08-19T04:40:19.821Z,41.70
2022-08-19T04:42:41.780Z,39.07
2022-08-19T04:45:06.463Z,41.07
2022-08-19T04:47:47.603Z,43.20
2022-08-19T04:50:15.792Z,45.70
2022-08-19T04:52:43.841Z,45.03
2022-08-19T04:55:07.515Z,41.07
2022-08-19T04:57:29.671Z,39.90
2022-08-19T04:59:56.844Z,43.57
2022-08-19T05:02:18.733Z,41.87
2022-08-19T05:04:40.839Z,44.30
2022-08-19T05:07:03.125Z,42.77
2022-08-19T05:09:24.959Z,42.73
2022-08-19T05:11:46.806Z,44.97
2022-08-19T05:14:11.093Z,40.07
2022-08-19T05:16:33.270Z,42.63
2022-08-19T05:19:15.243Z,40.57
2022-08-19T05:21:57.118Z,44.47
2022-08-19T05:24:20.832Z,42.23
2022-08-19T05:26:47.812Z,40.70
2022-08-19T05:29:11.360Z,42.60
2022-08-19T05:31:33.705Z,44.33
2022-08-19T05:33:56.981Z,40.20
2022-08-19T05:36:20.961Z,42.53
2022-08-19T05:38:42.785Z,41.13
2022-08-19T05:41:14.302Z,39.97
2022-08-19T05:43:37.059Z,41.57
2022-08-19T05:45:59.341Z,43.93
2022-08-19T05:48:21.498Z,45.40
2022-08-19T05:50:43.468Z,43.10
2022-08-19T05:53:06.032Z,46.17
2022-08-19T05:55:27.885Z,43.90
2022-08-19T05:57:49.782Z,46.37
2022-08-19T06:00:13.411Z,47.07
2022-08-19T06:02:36.428Z,47.23
2022-08-19T06:04:58.626Z,45.73
2022-08-19T06:07:20.867Z,46.83
2022-08-19T06:09:43.769Z,51.13
2022-08-19T06:12:22.143Z,51.03
2022-08-19T06:14:44.031Z,51.80
2022-08-19T06:17:07.239Z,56.37
2022-08-19T06:19:31.942Z,53.87
2022-08-19T06:21:54.524Z,52.15
2022-08-19T06:24:22.056Z,54.80
2022-08-19T06:29:23.864Z,52.57
2022-08-19T06:31:52.964Z,52.40
2022-08-19T06:34:14.914Z,53.53
2022-08-19T06:36:42.891Z,50.80
2022-08-19T06:39:27.515Z,48.80
2022-08-19T06:41:58.166Z,51.40
2022-08-19T06:44:25.830Z,53.83
2022-08-19T06:46:54.559Z,50.33
2022-08-19T06:49:18.486Z,54.30
2022-08-19T06:51:44.615Z,52.45
2022-08-19T06:54:07.249Z,50.60
2022-08-19T06:56:42.317Z,52.00
2022-08-19T06:59:12.594Z,52.72
2022-08-19T07:01:47.657Z,48.55
2022-08-19T07:04:12.073Z,47.60
2022-08-19T07:06:44.119Z,48.70
2022-08-19T07:09:09.184Z,48.88
2022-08-19T07:11:31.980Z,45.70
2022-08-19T07:13:56.409Z,52.85
2022-08-19T07:16:29.406Z,48.60
2022-08-19T07:18:52.437Z,47.88
2022-08-19T07:21:25.486Z,45.70
2022-08-19T07:23:52.873Z,44.83
2022-08-19T07:26:27.843Z,45.38
2022-08-19T07:28:51.531Z,43.33
2022-08-19T07:31:22.753Z,43.33
2022-08-19T07:33:48.425Z,50.25
2022-08-19T07:36:13.547Z,47.67
2022-08-19T07:38:35.869Z,41.00
2022-08-19T07:40:57.949Z,42.00
2022-08-19T07:43:21.585Z,42.00
2022-08-19T07:45:46.479Z,40.90
2022-08-19T07:48:08.444Z,39.45
2022-08-19T07:50:30.757Z,40.50
2022-08-19T07:52:52.833Z,40.80
2022-08-19T07:55:42.262Z,40.40
2022-08-19T07:57:56.968Z,41.33
2022-08-19T08:00:23.144Z,36.17
2022-08-19T08:02:46.784Z,38.10
2022-08-19T08:05:29.187Z,42.42
2022-08-19T08:08:09.623Z,39.25
2022-08-19T08:10:31.718Z,40.13
2022-08-19T08:13:09.103Z,36.58
2022-08-19T08:15:33.215Z,39.03
2022-08-19T08:17:55.156Z,39.55
2022-08-19T08:20:18.036Z,39.70
2022-08-19T08:23:04.375Z,34.35
2022-08-19T08:25:26.489Z,36.53
2022-08-19T08:27:48.822Z,34.88
2022-08-19T08:30:24.651Z,36.15
2022-08-19T08:32:47.143Z,33.08
2022-08-19T08:35:23.665Z,33.25
2022-08-19T08:37:49.859Z,32.78
2022-08-19T08:40:52.391Z,31.92
2022-08-19T08:43:37.069Z,32.58
2022-08-19T08:46:12.411Z,30.38
2022-08-19T08:49:42.583Z,29.65
2022-08-19T08:52:14.859Z,29.58
2022-08-19T08:54:49.116Z,30.95
2022-08-19T08:57:28.950Z,33.65
2022-08-19T09:00:06.950Z,33.10
2022-08-19T09:02:43.553Z,28.05
2022-08-19T09:05:10.353Z,32.25
2022-08-19T09:08:19.461Z,32.28
2022-08-19T09:10:55.385Z,29.67
2022-08-19T09:13:48.258Z,30.17
2022-08-19T09:16:27.977Z,31.50
2022-08-19T09:19:07.764Z,28.88
2022-08-19T09:21:33.379Z,30.05
2022-08-19T09:23:56.452Z,29.30
2022-08-19T09:26:23.901Z,35.67
2022-08-19T09:28:59.164Z,35.28
2022-08-19T09:31:26.832Z,31.98
2022-08-19T09:33:52.348Z,31.42
2022-08-19T09:36:21.740Z,34.17
2022-08-19T09:38:57.424Z,34.30
2022-08-19T09:41:23.927Z,33.95
2022-08-19T09:43:52.938Z,33.42
2022-08-19T09:46:18.397Z,34.40
2022-08-19T09:48:42.671Z,32.88
2022-08-19T09:51:18.308Z,35.80
2022-08-19T09:53:46.106Z,35.10
2022-08-19T09:56:08.331Z,36.10
2022-08-19T09:58:32.569Z,37.83
2022-08-19T10:01:00.660Z,38.10
2022-08-19T10:03:25.393Z,33.00
2022-08-19T10:05:55.205Z,32.25
2022-08-19T10:08:31.348Z,30.23
2022-08-19T10:10:55.878Z,28.75
2022-08-19T10:13:26.038Z,31.05
2022-08-19T10:15:49.260Z,29.15
2022-08-19T10:18:12.631Z,30.08
2022-08-19T10:20:36.663Z,28.42
2022-08-19T10:23:00.850Z,29.05
2022-08-19T10:25:23.688Z,33.05
2022-08-19T10:27:51.230Z,32.75
2022-08-19T10:30:14.606Z,32.55
2022-08-19T10:32:36.805Z,33.10
2022-08-19T10:34:58.664Z,33.92
2022-08-19T10:37:29.182Z,31.63
2022-08-19T10:39:53.633Z,32.88
2022-08-19T10:42:17.102Z,30.35
2022-08-19T10:44:38.948Z,30.90
2022-08-19T10:47:01.003Z,30.40
2022-08-19T10:49:25.127Z,31.98
2022-08-19T10:52:05.542Z,29.10
2022-08-19T10:57:16.646Z,27.60
2022-08-19T10:59:40.140Z,23.45
2022-08-19T11:02:05.577Z,26.23
2022-08-19T11:04:28.923Z,24.30
2022-08-19T11:06:51.808Z,24.92
2022-08-19T11:09:16.318Z,26.17
2022-08-19T11:11:42.523Z,25.63
2022-08-19T11:14:04.442Z,26.27
2022-08-19T11:16:28.754Z,24.38
2022-08-19T11:18:59.400Z,26.58
2022-08-19T11:21:32.865Z,25.10
2022-08-19T11:23:59.085Z,26.10
2022-08-19T11:26:23.912Z,30.08
2022-08-19T11:28:46.694Z,28.55
2022-08-19T11:31:20.156Z,30.05
2022-08-19T11:33:42.671Z,29.60
2022-08-19T11:36:10.837Z,32.88
2022-08-19T11:38:37.648Z,31.05
2022-08-19T11:41:08.312Z,32.50
2022-08-19T11:43:36.803Z,30.23
2022-08-19T11:46:00.305Z,30.92
2022-08-19T11:48:23.493Z,29.05
2022-08-19T11:50:45.416Z,28.38
2022-08-19T11:53:07.226Z,25.83
2022-08-19T11:55:31.912Z,24.30
2022-08-19T11:57:55.557Z,25.10
2022-08-19T12:00:17.875Z,25.08
2022-08-19T12:02:41.055Z,25.20
2022-08-19T12:05:04.932Z,25.23
2022-08-19T12:07:28.000Z,23.13
2022-08-19T12:09:49.997Z,23.75
2022-08-19T12:12:13.022Z,24.63
2022-08-19T12:14:35.551Z,26.52
2022-08-19T12:16:57.542Z,29.90
2022-08-19T12:19:22.160Z,26.48
2022-08-19T12:21:44.654Z,26.90
2022-08-19T12:24:07.761Z,25.58
2022-08-19T12:26:32.456Z,25.15
2022-08-19T12:28:55.492Z,24.23
2022-08-19T12:31:18.950Z,28.17
2022-08-19T12:33:42.904Z,26.43
2022-08-19T12:36:08.706Z,25.85
2022-08-19T12:38:31.006Z,25.02
2022-08-19T12:40:55.966Z,25.73
2022-08-19T12:43:21.417Z,26.70
2022-08-19T12:45:45.058Z,24.15
2022-08-19T12:48:33.747Z,24.80
2022-08-19T12:50:53.222Z,23.50
2022-08-19T12:53:16.122Z,24.02
2022-08-19T12:55:38.284Z,24.30
2022-08-19T12:58:02.397Z,25.25
2022-08-19T13:00:24.670Z,24.98
2022-08-19T13:02:51.575Z,24.15
2022-08-19T13:05:20.818Z,25.55
2022-08-19T13:07:44.986Z,27.27
2022-08-19T13:10:13.372Z,26.45
2022-08-19T13:12:36.167Z,26.55
2022-08-19T13:14:58.109Z,24.45
2022-08-19T13:17:21.728Z,21.55
2022-08-19T13:19:43.666Z,21.73
2022-08-19T13:22:13.207Z,21.45
2022-08-19T13:24:37.988Z,24.33
2022-08-19T13:27:01.790Z,24.20
2022-08-19T13:29:43.044Z,25.73
2022-08-19T13:32:23.566Z,23.52
2022-08-19T13:34:47.584Z,26.25
2022-08-19T13:37:09.774Z,23.60
2022-08-19T13:39:34.393Z,22.75
2022-08-19T13:41:57.025Z,20.83
2022-08-19T13:44:20.566Z,18.17
2022-08-19T13:46:46.468Z,20.30
2022-08-19T13:49:08.714Z,22.35
2022-08-19T13:51:30.727Z,24.48
2022-08-19T13:53:52.886Z,25.05
2022-08-19T13:56:25.403Z,24.30
2022-08-19T13:58:47.936Z,22.58
2022-08-19T14:01:11.096Z,25.20
2022-08-19T14:03:34.884Z,25.70
2022-08-19T14:05:57.424Z,25.25
2022-08-19T14:08:19.859Z,23.15
2022-08-19T14:10:43.540Z,25.15
2022-08-19T14:13:06.009Z,27.23
2022-08-19T14:15:29.172Z,26.52
2022-08-19T14:17:51.382Z,24.55
2022-08-19T14:20:17.716Z,25.85
2022-08-19T14:22:42.496Z,23.92
2022-08-19T14:25:17.045Z,29.67
2022-08-19T14:27:41.872Z,28.95
2022-08-19T14:30:07.883Z,29.52
2022-08-19T14:32:30.012Z,30.15
2022-08-19T14:34:52.590Z,29.65
2022-08-19T14:37:16.161Z,30.63
2022-08-19T14:39:39.255Z,30.70
2022-08-19T14:42:01.307Z,28.73
2022-08-19T14:44:23.687Z,30.20
2022-08-19T14:46:49.585Z,30.92
2022-08-19T14:49:11.647Z,20.58
2022-08-19T14:51:33.989Z,20.70
2022-08-19T14:53:56.225Z,22.42
2022-08-19T14:56:23.089Z,23.27
2022-08-19T14:58:46.285Z,21.73
2022-08-19T15:01:09.508Z,21.60
2022-08-19T15:03:32.915Z,23.33
2022-08-19T15:05:55.423Z,23.07
2022-08-19T15:08:17.342Z,22.80
2022-08-19T15:10:40.515Z,24.48
2022-08-19T15:13:02.667Z,24.40
2022-08-19T15:15:24.733Z,23.20
2022-08-19T15:17:47.498Z,22.23
2022-08-19T15:20:11.811Z,19.63
2022-08-19T15:22:35.169Z,17.33
2022-08-19T15:24:57.109Z,16.15
2022-08-19T15:27:18.945Z,16.30
2022-08-19T15:29:41.098Z,17.65
2022-08-19T15:32:03.616Z,19.10
2022-08-19T15:34:26.533Z,17.85
2022-08-19T15:36:48.493Z,18.98
2022-08-19T15:39:10.985Z,17.85
2022-08-19T15:41:33.202Z,17.52
2022-08-19T15:44:09.097Z,19.20
2022-08-19T15:46:34.916Z,18.35
2022-08-19T15:49:00.008Z,20.92
2022-08-19T15:51:23.486Z,22.25
2022-08-19T15:53:45.451Z,22.23
2022-08-19T15:56:07.296Z,22.40
2022-08-19T15:58:47.604Z,23.67
2022-08-19T16:01:47.936Z,22.25
2022-08-19T16:04:29.723Z,26.20
2022-08-19T16:06:56.505Z,25.17
2022-08-19T16:09:26.636Z,25.45
2022-08-19T16:11:56.512Z,19.48
2022-08-19T16:14:20.353Z,20.13
2022-08-19T16:16:46.871Z,20.52
2022-08-19T16:19:11.813Z,18.67
2022-08-19T16:21:36.229Z,18.58
2022-08-19T16:24:02.855Z,17.85
2022-08-19T16:26:28.414Z,16.70
2022-08-19T16:28:51.276Z,16.65
2022-08-19T16:31:14.982Z,16.20
2022-08-19T16:33:37.448Z,17.42
2022-08-19T16:36:07.015Z,17.50
2022-08-19T16:38:29.927Z,18.38
2022-08-19T16:40:54.948Z,16.75
2022-08-19T16:43:16.762Z,16.30
2022-08-19T16:45:38.617Z,17.17
2022-08-19T16:48:06.076Z,17.38
2022-08-19T16:50:47.837Z,18.30
2022-08-19T16:53:09.922Z,20.05
2022-08-19T16:55:31.704Z,19.35
2022-08-19T16:57:53.634Z,20.67
2022-08-19T17:00:16.766Z,20.50
2022-08-19T17:02:39.660Z,21.92
2022-08-19T17:05:01.792Z,23.80
2022-08-19T17:07:23.765Z,22.27
2022-08-19T17:09:45.760Z,22.13
2022-08-19T17:12:08.814Z,21.67
2022-08-19T17:14:30.630Z,21.05
2022-08-19T17:16:52.518Z,22.42
2022-08-19T17:19:14.801Z,23.92
2022-08-19T17:21:40.688Z,21.50
2022-08-19T17:24:08.618Z,22.40
2022-08-19T17:26:31.789Z,21.55
2022-08-19T17:28:56.996Z,21.98
2022-08-19T17:31:23.689Z,23.30
2022-08-19T17:33:48.769Z,22.75
2022-08-19T17:36:11.808Z,21.92
2022-08-19T17:38:35.404Z,21.45
2022-08-19T17:41:04.430Z,22.20
2022-08-19T17:43:32.254Z,20.77
2022-08-19T17:45:55.492Z,20.73
2022-08-19T17:48:17.782Z,23.05
2022-08-19T17:50:40.442Z,22.35
2022-08-19T17:53:04.036Z,22.63
2022-08-19T17:55:26.361Z,24.25
2022-08-19T17:57:48.231Z,22.17
2022-08-19T18:00:15.335Z,23.73
2022-08-19T18:02:56.149Z,21.40
2022-08-19T18:05:22.856Z,22.08
2022-08-19T18:07:44.932Z,22.05
2022-08-19T18:10:07.638Z,20.25
2022-08-19T18:12:29.562Z,20.85
2022-08-19T18:14:51.524Z,22.05
2022-08-19T18:17:19.086Z,21.38
2022-08-19T18:19:44.008Z,21.25
2022-08-19T18:22:06.708Z,20.73
2022-08-19T18:24:28.722Z,18.75
2022-08-19T18:26:50.571Z,18.38
2022-08-19T18:29:13.565Z,18.58
2022-08-19T18:31:38.675Z,18.83
2022-08-19T18:34:00.567Z,20.42
2022-08-19T18:36:50.209Z,20.10
2022-08-19T18:39:24.095Z,20.27
2022-08-19T18:42:05.281Z,20.88
2022-08-19T18:44:45.550Z,20.90
2022-08-19T18:47:25.910Z,20.50
2022-08-19T18:49:51.213Z,20.63
2022-08-19T18:52:13.094Z,19.83
2022-08-19T18:54:35.736Z,20.73
2022-08-19T18:56:57.782Z,19.77
2022-08-19T18:59:21.228Z,19.13
2022-08-19T19:01:50.950Z,20.17
2022-08-19T19:04:14.015Z,18.63
2022-08-19T19:06:40.423Z,18.67
2022-08-19T19:09:02.406Z,17.50
2022-08-19T19:11:29.562Z,19.15
2022-08-19T19:13:51.977Z,18.23
2022-08-19T19:16:13.807Z,17.33
2022-08-19T19:18:35.714Z,19.17
2022-08-19T19:20:59.270Z,17.65
2022-08-19T19:23:21.414Z,19.70
2022-08-19T19:25:50.946Z,19.48
2022-08-19T19:28:16.049Z,18.88
2022-08-19T19:30:39.096Z,20.00
2022-08-19T19:33:02.081Z,19.67
2022-08-19T19:35:23.910Z,20.70
2022-08-19T19:37:51.814Z,19.90
2022-08-19T19:40:13.763Z,18.27
2022-08-19T19:42:35.827Z,18.90
2022-08-19T19:44:58.690Z,20.05
2022-08-19T19:47:21.418Z,19.10
2022-08-19T19:50:03.958Z,19.98
2022-08-19T19:52:26.652Z,20.88
2022-08-19T19:54:48.761Z,19.20
2022-08-19T19:57:11.369Z,19.02
2022-08-19T19:59:33.508Z,18.45
2022-08-19T20:01:56.615Z,16.90
2022-08-19T20:04:21.898Z,18.23
2022-08-19T20:06:45.739Z,16.77
2022-08-19T20:09:08.250Z,16.77
2022-08-19T20:11:32.879Z,17.92
2022-08-19T20:13:54.704Z,16.33
2022-08-19T20:16:18.065Z,16.83
2022-08-19T20:18:40.227Z,15.63
2022-08-19T20:21:02.127Z,16.70
2022-08-19T20:23:24.046Z,18.08
2022-08-19T20:25:46.279Z,18.13
2022-08-19T20:28:09.187Z,17.60
2022-08-19T20:30:33.078Z,17.48
2022-08-19T20:32:56.514Z,16.75
2022-08-19T20:35:21.442Z,17.13
2022-08-19T20:37:43.442Z,17.35
2022-08-19T20:40:09.752Z,18.17
2022-08-19T20:42:31.707Z,19.23
2022-08-19T20:44:53.787Z,17.10
2022-08-19T20:47:16.140Z,16.05
2022-08-19T20:49:38.341Z,15.68
2022-08-19T20:52:00.503Z,17.30
2022-08-19T20:54:22.471Z,16.42
2022-08-19T20:56:44.490Z,16.75
2022-08-19T20:59:10.297Z,17.08
2022-08-19T21:01:32.489Z,16.80
2022-08-19T21:03:54.279Z,16.42
2022-08-19T21:06:16.247Z,17.05
2022-08-19T21:08:39.563Z,17.17
2022-08-19T21:11:03.013Z,15.43
2022-08-19T21:13:25.844Z,16.52
2022-08-19T21:15:48.723Z,15.95
2022-08-19T21:18:12.813Z,16.23
2022-08-19T21:20:34.716Z,15.32
2022-08-19T21:22:56.606Z,16.13
2022-08-19T21:25:18.664Z,15.57
2022-08-19T21:27:40.529Z,14.77
2022-08-19T21:30:07.130Z,15.82
2022-08-19T21:32:29.673Z,15.57
2022-08-19T21:34:52.813Z,14.27
2022-08-19T21:37:18.991Z,15.18
2022-08-19T21:39:48.376Z,14.75
2022-08-19T21:42:12.900Z,16.30
2022-08-19T21:44:37.622Z,14.63
2022-08-19T21:46:59.519Z,14.52
2022-08-19T21:49:22.208Z,14.70
2022-08-19T21:51:44.189Z,15.60
2022-08-19T21:54:06.097Z,15.13
2022-08-19T21:56:27.920Z,13.93
2022-08-19T21:58:50.042Z,15.10
2022-08-19T22:01:12.299Z,14.82
2022-08-19T22:03:37.821Z,15.30
2022-08-19T22:05:59.884Z,14.80
2022-08-19T22:08:23.071Z,14.07
2022-08-19T22:10:45.280Z,14.05
2022-08-19T22:13:09.501Z,15.07
2022-08-19T22:15:32.536Z,14.45
2022-08-19T22:17:54.887Z,14.07
2022-08-19T22:20:22.747Z,13.90
2022-08-19T22:22:57.709Z,15.50
2022-08-19T22:27:56.872Z,13.43
2022-08-19T22:30:24.481Z,14.00
2022-08-19T22:33:01.345Z,14.90
2022-08-19T22:35:25.617Z,13.48
2022-08-19T22:37:48.389Z,14.13
2022-08-19T22:40:13.064Z,15.85
2022-08-19T22:42:35.081Z,15.10
2022-08-19T22:44:58.927Z,15.30
2022-08-19T22:47:20.759Z,16.25
2022-08-19T22:49:42.634Z,15.68
2022-08-19T22:52:19.910Z,16.20
2022-08-19T22:54:41.832Z,15.73
2022-08-19T22:57:04.321Z,15.68
2022-08-19T22:59:26.293Z,17.00
2022-08-19T23:01:48.295Z,16.20
2022-08-19T23:04:11.051Z,14.85
2022-08-19T23:06:35.051Z,15.27
2022-08-19T23:08:59.159Z,15.88
2022-08-19T23:11:21.478Z,15.23
2022-08-19T23:13:43.406Z,15.25
2022-08-19T23:16:06.074Z,15.48
2022-08-19T23:18:29.797Z,15.60
2022-08-19T23:20:54.581Z,15.35
2022-08-19T23:23:19.747Z,15.57
2022-08-19T23:25:41.751Z,15.50
2022-08-19T23:28:24.940Z,16.08
2022-08-19T23:30:49.996Z,16.25
2022-08-19T23:33:24.829Z,16.17
2022-08-19T23:38:10.036Z,16.02
2022-08-19T23:40:31.914Z,16.20
2022-08-19T23:42:54.736Z,17.67
2022-08-19T23:45:23.907Z,16.98
2022-08-19T23:47:46.719Z,16.58
2022-08-19T23:50:09.252Z,17.33
2022-08-19T23:52:41.907Z,16.25
2022-08-19T23:55:07.395Z,16.35
2022-08-19T23:57:29.192Z,16.60
2022-08-19T23:59:50.981Z,16.98
